Time;durP1;ratioP1;P1;durP2;ratioP2;P2;SDS_P1;SDS_P2;PMS_P1;PMS_P2;Temp;Humidity;BMP_temperature;BMP_pressure;BME280_temperature;BME280_humidity;BME280_pressure;Samples;Min_cycle;Max_cycle;Signal;HPM_P1;HPM_P2
2021/09/05 00:00:42;;;;;;;48.88;22.02;;;11.90;99.90;;;;;;5043024;28;20042;-66
2021/09/05 00:03:08;;;;;;;44.63;20.35;;;11.90;99.90;;;;;;5039083;28;20116;-66
2021/09/05 00:05:34;;;;;;;52.40;21.90;;;11.90;99.90;;;;;;5039234;28;20064;-66
2021/09/05 00:07:59;;;;;;;56.60;25.58;;;11.80;99.90;;;;;;5040924;28;20129;-66
2021/09/05 00:10:25;;;;;;;61.72;27.35;;;11.80;99.90;;;;;;5037364;28;20037;-66
2021/09/05 00:12:51;;;;;;;50.63;24.95;;;11.90;99.90;;;;;;5042117;28;20183;-66
2021/09/05 00:15:17;;;;;;;83.07;34.45;;;11.80;99.90;;;;;;5035634;28;20698;-66
2021/09/05 00:17:43;;;;;;;67.38;30.20;;;11.80;99.90;;;;;;5042146;28;20053;-66
2021/09/05 00:20:09;;;;;;;61.22;26.50;;;11.70;99.90;;;;;;5034683;28;20072;-65
2021/09/05 00:22:35;;;;;;;50.78;23.80;;;11.70;99.90;;;;;;5039860;28;20474;-65
2021/09/05 00:25:02;;;;;;;53.42;22.63;;;11.60;99.90;;;;;;5044489;28;20033;-66
2021/09/05 00:27:28;;;;;;;49.83;21.33;;;11.60;99.90;;;;;;5039334;28;20033;-65
2021/09/05 00:29:53;;;;;;;34.05;17.10;;;11.40;99.90;;;;;;5032961;28;20101;-66
2021/09/05 00:32:19;;;;;;;41.80;17.60;;;11.40;99.90;;;;;;5035292;28;20041;-65
2021/09/05 00:34:45;;;;;;;45.33;18.88;;;11.40;99.90;;;;;;5041255;28;20117;-66
2021/09/05 00:37:10;;;;;;;34.30;16.35;;;11.40;99.90;;;;;;5034015;28;20145;-65
2021/09/05 00:39:36;;;;;;;39.03;16.63;;;11.30;99.90;;;;;;5041119;28;20037;-65
2021/09/05 00:42:02;;;;;;;28.20;13.63;;;11.30;99.90;;;;;;5031988;28;20087;-65
2021/09/05 00:44:27;;;;;;;44.42;18.13;;;11.20;99.90;;;;;;5040319;28;20037;-65
2021/09/05 00:46:53;;;;;;;51.75;17.77;;;11.20;99.90;;;;;;5032739;28;20072;-65
2021/09/05 00:49:18;;;;;;;36.60;15.88;;;11.20;99.90;;;;;;5039933;28;20076;-65
2021/09/05 00:51:44;;;;;;;43.20;15.07;;;11.10;99.90;;;;;;5031390;28;20041;-65
2021/09/05 00:54:12;;;;;;;31.00;14.80;;;11.10;99.90;;;;;;5033410;28;20045;-65
2021/09/05 00:56:41;;;;;;;31.10;13.60;;;11.10;99.90;;;;;;5031722;28;20046;-65
2021/09/05 00:59:11;;;;;;;35.97;14.20;;;11.10;99.90;;;;;;5030842;28;20045;-65
2021/09/05 01:01:37;;;;;;;32.83;13.75;;;11.00;99.90;;;;;;5032136;28;20088;-65
2021/09/05 01:04:04;;;;;;;27.02;11.90;;;10.90;99.90;;;;;;5036346;28;20041;-65
2021/09/05 01:06:32;;;;;;;25.75;11.57;;;10.90;99.90;;;;;;5043320;28;20060;-65
2021/09/05 01:08:59;;;;;;;21.48;9.98;;;10.90;99.90;;;;;;5036531;28;20049;-65
2021/09/05 01:11:24;;;;;;;21.33;10.48;;;10.80;99.90;;;;;;5043065;28;20489;-65
2021/09/05 01:13:51;;;;;;;22.05;10.23;;;10.70;99.90;;;;;;5035421;28;20057;-65
2021/09/05 01:16:25;;;;;;;23.75;10.90;;;10.70;99.90;;;;;;5042802;28;20045;-65
2021/09/05 01:18:50;;;;;;;28.55;10.05;;;10.60;99.90;;;;;;5033420;28;20065;-65
2021/09/05 01:21:16;;;;;;;29.52;10.93;;;10.60;99.90;;;;;;5041224;28;20041;-65
2021/09/05 01:23:42;;;;;;;41.22;12.68;;;10.50;99.90;;;;;;5040122;28;20053;-65
2021/09/05 01:26:08;;;;;;;27.20;12.07;;;10.50;99.90;;;;;;5040138;28;20038;-65
2021/09/05 01:28:34;;;;;;;28.52;12.93;;;10.40;99.90;;;;;;5037189;28;20053;-65
2021/09/05 01:31:00;;;;;;;25.77;12.75;;;10.40;99.90;;;;;;5034001;28;20038;-65
2021/09/05 01:33:25;;;;;;;33.35;12.23;;;10.40;99.90;;;;;;5040053;28;20080;-65
2021/09/05 01:35:51;;;;;;;28.10;11.88;;;10.40;99.90;;;;;;5037971;28;20421;-65
2021/09/05 01:38:17;;;;;;;23.85;10.40;;;10.40;99.90;;;;;;5038973;28;20049;-65
2021/09/05 01:40:42;;;;;;;24.67;10.98;;;10.30;99.90;;;;;;5043603;28;20038;-65
2021/09/05 01:43:08;;;;;;;19.45;10.38;;;10.30;99.90;;;;;;5042861;28;20048;-65
2021/09/05 01:45:34;;;;;;;29.50;12.02;;;10.30;99.90;;;;;;5035605;28;20072;-65
2021/09/05 01:47:59;;;;;;;29.63;13.23;;;10.30;99.90;;;;;;5042225;28;20060;-65
2021/09/05 01:50:25;;;;;;;27.95;12.88;;;10.20;99.90;;;;;;5034057;28;20109;-65
2021/09/05 01:52:51;;;;;;;36.22;13.60;;;10.20;99.90;;;;;;5034195;28;20042;-65
2021/09/05 01:55:16;;;;;;;40.42;15.32;;;10.20;99.90;;;;;;5046200;28;20060;-65
2021/09/05 01:57:42;;;;;;;48.17;18.27;;;10.20;99.90;;;;;;5040107;28;20365;-65
2021/09/05 02:00:08;;;;;;;63.92;19.77;;;10.20;99.90;;;;;;5046274;28;20048;-65
2021/09/05 02:02:34;;;;;;;54.22;17.98;;;10.20;99.90;;;;;;5038971;28;20112;-65
2021/09/05 02:05:00;;;;;;;50.10;18.88;;;10.20;99.90;;;;;;5044987;28;20046;-65
2021/09/05 02:07:25;;;;;;;42.63;15.73;;;10.20;99.90;;;;;;5037571;28;20042;-65
2021/09/05 02:09:51;;;;;;;35.85;14.95;;;10.20;99.90;;;;;;5041829;28;20497;-65
2021/09/05 02:12:16;;;;;;;47.17;17.35;;;10.30;99.90;;;;;;5046493;28;20092;-65
2021/09/05 02:14:42;;;;;;;43.65;16.42;;;10.20;99.90;;;;;;5043481;28;20057;-65
2021/09/05 02:17:08;;;;;;;39.30;15.98;;;10.20;99.90;;;;;;5035485;28;20090;-65
2021/09/05 02:19:33;;;;;;;52.35;18.08;;;10.20;99.90;;;;;;5042766;28;20049;-65
2021/09/05 02:22:00;;;;;;;49.05;17.92;;;10.10;99.90;;;;;;5034751;28;20098;-65
2021/09/05 02:24:26;;;;;;;56.25;18.50;;;10.10;99.90;;;;;;5041610;28;20108;-65
2021/09/05 02:26:52;;;;;;;60.83;20.17;;;10.10;99.90;;;;;;5034926;28;20052;-65
2021/09/05 02:29:18;;;;;;;62.35;23.83;;;10.20;99.90;;;;;;5040248;28;20045;-65
2021/09/05 02:31:43;;;;;;;57.22;21.52;;;10.30;99.90;;;;;;5036571;28;20080;-65
2021/09/05 02:34:09;;;;;;;70.00;24.60;;;10.30;99.90;;;;;;5036511;28;20072;-64
2021/09/05 02:36:35;;;;;;;88.43;29.88;;;10.30;99.90;;;;;;5044454;28;20420;-65
2021/09/05 02:39:00;;;;;;;87.88;29.13;;;10.60;99.90;;;;;;5038127;28;20057;-65
2021/09/05 02:41:26;;;;;;;79.97;27.05;;;10.70;99.90;;;;;;5044801;28;20529;-65
2021/09/05 02:43:53;;;;;;;103.28;30.33;;;10.70;99.90;;;;;;5038147;28;20061;-64
2021/09/05 02:46:19;;;;;;;88.18;28.38;;;10.80;99.90;;;;;;5041570;28;20041;-65
2021/09/05 02:48:45;;;;;;;116.45;35.40;;;10.70;99.90;;;;;;5038822;28;20074;-65
2021/09/05 02:51:11;;;;;;;97.10;31.63;;;10.90;99.90;;;;;;5037807;28;20085;-66
2021/09/05 02:53:36;;;;;;;114.10;33.60;;;11.00;99.90;;;;;;5040123;28;20061;-65
2021/09/05 02:56:02;;;;;;;95.57;30.38;;;10.80;99.90;;;;;;5036149;28;20046;-65
2021/09/05 02:58:28;;;;;;;100.03;30.90;;;10.90;99.90;;;;;;5041582;28;20557;-65
2021/09/05 03:00:53;;;;;;;124.85;35.10;;;10.90;99.90;;;;;;5035103;28;20049;-65
2021/09/05 03:03:19;;;;;;;110.78;34.42;;;11.00;99.90;;;;;;5041515;28;20157;-65
2021/09/05 03:05:45;;;;;;;131.35;36.45;;;11.00;99.90;;;;;;5033890;28;20045;-65
2021/09/05 03:08:11;;;;;;;147.45;41.03;;;11.10;99.90;;;;;;5040463;28;20049;-65
2021/09/05 03:10:36;;;;;;;110.03;32.03;;;11.20;99.90;;;;;;5033430;28;20041;-65
2021/09/05 03:13:02;;;;;;;253.77;44.00;;;11.10;99.90;;;;;;5039402;28;20201;-65
2021/09/05 03:15:28;;;;;;;367.73;53.30;;;11.20;99.90;;;;;;5032027;28;20041;-65
2021/09/05 03:17:54;;;;;;;605.20;66.70;;;11.30;99.90;;;;;;5038768;28;20045;-65
2021/09/05 03:20:19;;;;;;;194.40;40.22;;;11.30;99.90;;;;;;5030655;28;20045;-65
2021/09/05 03:22:45;;;;;;;519.78;60.88;;;11.30;99.90;;;;;;5037887;28;20079;-65
2021/09/05 03:25:11;;;;;;;473.65;57.40;;;11.50;99.90;;;;;;5043910;28;20041;-65
2021/09/05 03:27:37;;;;;;;595.45;67.65;;;11.60;99.90;;;;;;5036712;28;20064;-65
2021/09/05 03:30:04;;;;;;;543.10;66.68;;;11.60;99.90;;;;;;5043163;28;20074;-65
2021/09/05 03:32:30;;;;;;;728.33;80.57;;;11.70;99.90;;;;;;5035800;28;20049;-65
2021/09/05 03:34:56;;;;;;;476.60;60.20;;;11.70;99.90;;;;;;5006538;28;1076360;-66
2021/09/05 03:37:21;;;;;;;626.60;67.75;;;11.70;99.90;;;;;;5036601;28;20056;-65
2021/09/05 03:39:47;;;;;;;561.03;63.78;;;11.70;99.90;;;;;;5041102;28;20048;-65
2021/09/05 03:42:13;;;;;;;691.03;76.97;;;11.80;99.90;;;;;;5033926;28;20057;-65
2021/09/05 03:44:38;;;;;;;697.83;78.15;;;11.70;99.90;;;;;;5038352;28;20052;-65
2021/09/05 03:47:04;;;;;;;630.13;74.85;;;11.70;99.90;;;;;;5038948;28;20048;-66
2021/09/05 03:49:31;;;;;;;645.75;75.70;;;11.60;99.90;;;;;;5038478;28;20655;-66
2021/09/05 03:51:57;;;;;;;715.15;79.50;;;11.60;99.90;;;;;;5036225;28;20046;-65
2021/09/05 03:54:23;;;;;;;582.58;75.35;;;11.60;99.90;;;;;;5033165;28;20042;-66
2021/09/05 03:56:49;;;;;;;512.47;68.72;;;11.50;99.90;;;;;;5044477;28;20037;-66
2021/09/05 03:59:14;;;;;;;411.88;59.22;;;11.50;99.90;;;;;;5037996;28;20045;-66
2021/09/05 04:01:41;;;;;;;430.00;63.72;;;11.50;99.90;;;;;;5042464;28;20041;-66
2021/09/05 04:04:07;;;;;;;414.35;62.25;;;11.50;99.90;;;;;;5038468;28;20061;-66
2021/09/05 04:06:32;;;;;;;590.22;75.95;;;11.50;99.90;;;;;;5039706;28;20045;-66
2021/09/05 04:09:08;;;;;;;584.35;72.25;;;11.40;99.90;;;;;;5040963;28;20169;-66
2021/09/05 04:11:34;;;;;;;434.35;63.78;;;11.40;99.90;;;;;;5039096;28;20048;-66
2021/09/05 04:14:00;;;;;;;282.27;53.08;;;11.40;99.90;;;;;;5039574;28;20057;-66
2021/09/05 04:16:25;;;;;;;247.88;53.17;;;11.40;99.90;;;;;;5035902;28;20109;-66
2021/09/05 04:18:51;;;;;;;201.32;48.88;;;11.30;99.90;;;;;;5042055;28;20037;-66
2021/09/05 04:21:17;;;;;;;191.13;48.35;;;11.40;99.90;;;;;;5034542;28;20497;-66
2021/09/05 04:23:42;;;;;;;188.23;48.55;;;11.40;99.90;;;;;;5041753;28;20393;-66
2021/09/05 04:26:08;;;;;;;229.32;53.10;;;11.40;99.90;;;;;;5034363;28;20054;-65
2021/09/05 04:28:34;;;;;;;243.82;51.97;;;11.40;99.90;;;;;;5039194;28;20084;-65
2021/09/05 04:31:00;;;;;;;327.70;56.40;;;11.30;99.90;;;;;;5032636;28;20116;-65
2021/09/05 04:33:26;;;;;;;365.25;58.88;;;11.30;99.90;;;;;;5039542;28;20049;-65
2021/09/05 04:35:52;;;;;;;353.35;56.63;;;11.20;99.90;;;;;;5031017;28;20100;-65
2021/09/05 04:38:17;;;;;;;333.08;53.45;;;11.30;99.90;;;;;;5039651;28;20049;-66
2021/09/05 04:40:43;;;;;;;292.85;51.45;;;11.10;99.90;;;;;;5042987;28;20037;-65
2021/09/05 04:43:09;;;;;;;201.32;47.78;;;11.10;99.90;;;;;;5065675;28;20560;-66
2021/09/05 04:45:34;;;;;;;186.55;45.30;;;11.00;99.90;;;;;;5040517;28;20053;-67
2021/09/05 04:48:00;;;;;;;173.75;43.42;;;11.00;99.90;;;;;;5030910;28;20504;-66
2021/09/05 04:50:26;;;;;;;155.23;42.33;;;11.00;99.90;;;;;;5039381;28;20038;-66
2021/09/05 04:52:51;;;;;;;146.70;42.97;;;10.90;99.90;;;;;;5032179;28;20045;-65
2021/09/05 04:55:17;;;;;;;131.40;40.30;;;11.00;99.90;;;;;;5037243;28;20109;-65
2021/09/05 04:57:43;;;;;;;126.80;40.00;;;10.80;99.90;;;;;;5030831;28;20054;-65
2021/09/05 05:00:09;;;;;;;133.70;39.30;;;10.80;99.90;;;;;;5038142;28;20123;-65
2021/09/05 05:02:35;;;;;;;119.80;39.03;;;10.70;99.90;;;;;;5032338;28;20077;-65
2021/09/05 05:05:01;;;;;;;124.45;40.08;;;10.70;99.90;;;;;;5034569;28;20045;-65
2021/09/05 05:07:26;;;;;;;125.43;39.50;;;10.60;99.90;;;;;;5041880;28;20065;-65
2021/09/05 05:09:53;;;;;;;139.88;40.25;;;10.70;99.90;;;;;;5036647;28;20049;-65
2021/09/05 05:12:19;;;;;;;132.67;40.53;;;10.70;99.90;;;;;;5043451;28;20048;-66
2021/09/05 05:14:45;;;;;;;119.10;38.33;;;10.60;99.90;;;;;;5035686;28;20300;-64
2021/09/05 05:17:10;;;;;;;125.85;39.38;;;10.70;99.90;;;;;;5035502;28;20095;-64
2021/09/05 05:19:36;;;;;;;125.75;41.20;;;10.60;99.90;;;;;;5036238;28;20049;-65
2021/09/05 05:22:03;;;;;;;128.00;39.95;;;10.60;99.90;;;;;;5039798;28;20041;-65
2021/09/05 05:24:28;;;;;;;138.00;40.72;;;10.60;99.90;;;;;;5036690;28;20038;-65
2021/09/05 05:26:54;;;;;;;125.32;39.85;;;10.70;99.90;;;;;;5037728;28;20042;-65
2021/09/05 05:29:20;;;;;;;114.22;39.53;;;10.70;99.90;;;;;;5039103;28;20054;-65
2021/09/05 05:31:45;;;;;;;124.97;40.65;;;10.70;99.90;;;;;;5034639;28;20109;-65
2021/09/05 05:34:11;;;;;;;121.38;38.22;;;10.80;99.90;;;;;;5040537;28;20053;-65
2021/09/05 05:36:37;;;;;;;128.45;38.92;;;10.80;99.90;;;;;;5032341;28;20490;-65
2021/09/05 05:39:02;;;;;;;133.70;41.40;;;10.80;99.90;;;;;;5038763;28;20041;-65
2021/09/05 05:41:28;;;;;;;124.47;39.38;;;10.80;99.90;;;;;;5042132;28;20056;-65
2021/09/05 05:43:54;;;;;;;117.38;37.88;;;10.90;99.90;;;;;;5035247;28;20079;-65
2021/09/05 05:46:19;;;;;;;108.45;37.05;;;10.90;99.90;;;;;;5041927;28;20052;-64
2021/09/05 05:48:45;;;;;;;109.60;36.90;;;10.90;99.90;;;;;;5034317;28;20045;-65
2021/09/05 05:51:11;;;;;;;118.85;38.08;;;10.90;99.90;;;;;;5040033;28;20042;-65
2021/09/05 05:53:36;;;;;;;100.47;38.00;;;11.00;99.90;;;;;;5033347;28;20080;-64
2021/09/05 05:56:03;;;;;;;118.13;38.47;;;11.10;99.90;;;;;;5039337;28;20053;-65
2021/09/05 05:58:30;;;;;;;117.20;39.53;;;11.10;99.90;;;;;;5032029;28;20041;-65
2021/09/05 06:00:55;;;;;;;109.15;38.88;;;11.10;99.90;;;;;;5038940;28;20050;-65
2021/09/05 06:03:21;;;;;;;123.57;38.35;;;11.10;99.90;;;;;;5032056;28;20045;-65
2021/09/05 06:05:47;;;;;;;118.50;38.28;;;11.20;99.90;;;;;;5038354;28;20053;-65
2021/09/05 06:08:14;;;;;;;120.70;37.40;;;11.30;99.90;;;;;;5031179;28;20045;-65
2021/09/05 06:10:40;;;;;;;143.57;42.50;;;11.40;99.90;;;;;;5037779;28;20429;-65
2021/09/05 06:13:06;;;;;;;200.13;42.67;;;11.30;99.90;;;;;;5030498;28;20080;-66
2021/09/05 06:15:32;;;;;;;179.85;40.08;;;11.40;99.90;;;;;;5037056;28;20042;-65
2021/09/05 06:17:57;;;;;;;267.20;46.90;;;11.40;99.90;;;;;;5031029;28;20042;-65
2021/09/05 06:20:23;;;;;;;262.92;39.42;;;11.50;99.90;;;;;;5034234;28;20517;-65
2021/09/05 06:22:49;;;;;;;297.10;45.65;;;11.50;99.90;;;;;;5044566;28;20497;-65
2021/09/05 06:25:16;;;;;;;262.85;40.78;;;11.50;99.90;;;;;;5039155;28;20037;-66
2021/09/05 06:27:42;;;;;;;281.10;39.13;;;11.50;99.90;;;;;;5045093;28;20049;-65
2021/09/05 06:30:08;;;;;;;419.42;53.30;;;11.50;99.90;;;;;;5038410;28;20304;-66
2021/09/05 06:32:34;;;;;;;294.52;36.38;;;11.50;99.90;;;;;;5044753;28;20559;-66
2021/09/05 06:35:00;;;;;;;437.33;53.30;;;11.50;99.90;;;;;;5038163;28;20046;-65
2021/09/05 06:37:26;;;;;;;396.35;52.80;;;11.50;99.90;;;;;;5042790;28;20088;-66
2021/09/05 06:39:52;;;;;;;329.83;44.92;;;11.50;99.90;;;;;;5039567;28;20115;-65
2021/09/05 06:42:18;;;;;;;531.00;60.05;;;11.60;99.90;;;;;;5037798;28;20049;-65
2021/09/05 06:44:43;;;;;;;408.77;51.25;;;11.70;99.90;;;;;;5045161;28;20072;-65
2021/09/05 06:47:09;;;;;;;407.85;55.13;;;11.70;99.90;;;;;;5041184;28;20046;-66
2021/09/05 06:49:35;;;;;;;499.00;56.13;;;11.80;99.90;;;;;;5042229;28;20041;-66
2021/09/05 06:52:01;;;;;;;362.52;48.90;;;11.80;99.90;;;;;;5041527;28;20041;-66
2021/09/05 06:54:26;;;;;;;411.50;53.53;;;11.90;99.90;;;;;;5040434;28;20034;-66
2021/09/05 06:56:52;;;;;;;300.38;43.85;;;12.00;99.90;;;;;;5043570;28;20056;-65
2021/09/05 06:59:18;;;;;;;299.20;46.78;;;12.10;99.90;;;;;;5036299;28;20080;-66
2021/09/05 07:01:44;;;;;;;437.67;53.38;;;12.10;99.90;;;;;;5044314;28;20041;-66
2021/09/05 07:04:11;;;;;;;327.15;48.38;;;12.20;99.90;;;;;;5037157;28;20049;-66
2021/09/05 07:06:37;;;;;;;356.48;43.67;;;12.30;99.90;;;;;;5043256;28;20045;-66
2021/09/05 07:09:03;;;;;;;157.23;29.35;;;12.30;99.90;;;;;;5035696;28;20064;-65
2021/09/05 07:11:28;;;;;;;180.13;34.70;;;12.20;99.90;;;;;;5042344;28;20088;-66
2021/09/05 07:13:54;;;;;;;247.05;40.63;;;12.30;99.90;;;;;;5034651;28;20044;-66
2021/09/05 07:16:20;;;;;;;282.23;43.72;;;12.30;99.90;;;;;;5041223;28;20105;-66
2021/09/05 07:18:45;;;;;;;207.90;38.80;;;12.50;99.90;;;;;;5034234;28;20064;-67
2021/09/05 07:21:11;;;;;;;301.23;43.45;;;12.60;99.90;;;;;;5040045;28;20513;-66
2021/09/05 07:23:37;;;;;;;205.55;39.55;;;12.60;99.90;;;;;;5033277;28;20375;-66
2021/09/05 07:26:04;;;;;;;321.02;45.15;;;12.70;99.90;;;;;;5040008;28;20087;-66
2021/09/05 07:28:36;;;;;;;209.18;40.45;;;12.70;99.90;;;;;;5032256;28;20121;-66
2021/09/05 07:31:03;;;;;;;189.27;35.75;;;12.80;99.90;;;;;;5039075;28;20080;-66
2021/09/05 07:33:29;;;;;;;120.57;25.90;;;12.70;99.90;;;;;;5044945;28;20038;-66
2021/09/05 07:35:55;;;;;;;120.68;26.35;;;12.70;99.90;;;;;;5036949;28;20119;-66
2021/09/05 07:38:20;;;;;;;174.15;29.83;;;12.60;99.90;;;;;;5044793;28;20060;-66
2021/09/05 07:40:47;;;;;;;153.07;32.45;;;12.60;99.90;;;;;;5037194;28;20040;-67
2021/09/05 07:43:12;;;;;;;116.10;30.30;;;12.70;99.90;;;;;;5071770;28;20152;-67
2021/09/05 07:45:38;;;;;;;113.35;29.65;;;12.70;99.90;;;;;;5033897;28;20041;-66
2021/09/05 07:48:04;;;;;;;69.47;29.35;;;12.80;99.90;;;;;;5038090;28;20413;-66
2021/09/05 07:50:30;;;;;;;83.85;23.77;;;12.90;99.90;;;;;;5034552;28;20042;-66
2021/09/05 07:52:56;;;;;;;58.10;16.20;;;12.80;99.90;;;;;;5035594;28;20044;-66
2021/09/05 07:55:21;;;;;;;154.02;33.08;;;12.70;99.90;;;;;;5045223;28;20084;-66
2021/09/05 07:57:47;;;;;;;146.45;30.30;;;12.80;99.90;;;;;;5037578;28;20049;-66
2021/09/05 08:00:13;;;;;;;142.57;31.63;;;12.80;99.90;;;;;;5044305;28;20052;-66
2021/09/05 08:02:40;;;;;;;103.75;31.73;;;13.00;99.90;;;;;;5038365;28;20109;-66
2021/09/05 08:05:10;;;;;;;86.60;28.77;;;13.10;99.90;;;;;;5042925;28;20050;-66
2021/09/05 08:07:36;;;;;;;60.63;23.70;;;13.10;99.90;;;;;;5038475;28;20037;-66
2021/09/05 08:10:05;;;;;;;66.00;23.15;;;13.20;99.90;;;;;;5041049;28;20472;-66
2021/09/05 08:12:31;;;;;;;44.95;22.40;;;13.10;99.90;;;;;;5038119;28;20121;-66
2021/09/05 08:14:57;;;;;;;51.72;24.08;;;13.10;99.90;;;;;;5038063;28;20092;-67
2021/09/05 08:17:23;;;;;;;51.83;24.17;;;13.30;99.90;;;;;;5040035;28;20053;-67
2021/09/05 08:19:50;;;;;;;43.45;23.35;;;13.40;99.90;;;;;;5035450;28;20053;-66
2021/09/05 08:22:17;;;;;;;44.45;21.88;;;13.60;99.90;;;;;;5041083;28;20486;-66
2021/09/05 08:24:43;;;;;;;35.10;20.48;;;13.70;99.90;;;;;;5035071;28;20033;-66
2021/09/05 08:27:08;;;;;;;40.47;22.38;;;13.70;99.90;;;;;;5040540;28;20037;-66
2021/09/05 08:29:35;;;;;;;41.17;23.27;;;13.80;99.90;;;;;;5033142;28;20041;-67
2021/09/05 08:32:00;;;;;;;41.30;22.77;;;14.00;99.90;;;;;;5040456;28;20061;-66
2021/09/05 08:34:27;;;;;;;32.83;21.02;;;14.10;99.90;;;;;;5032661;28;20050;-66
2021/09/05 08:36:53;;;;;;;34.95;20.05;;;14.00;99.90;;;;;;5038744;28;20104;-66
2021/09/05 08:39:18;;;;;;;37.40;21.25;;;14.20;99.90;;;;;;5043118;28;20110;-65
2021/09/05 08:41:44;;;;;;;32.03;20.80;;;14.30;99.90;;;;;;5038068;28;20235;-66
2021/09/05 08:44:10;;;;;;;37.03;20.77;;;14.40;99.90;;;;;;5044288;28;20037;-65
2021/09/05 08:46:38;;;;;;;28.17;18.33;;;14.50;99.90;;;;;;5032602;28;20052;-65
2021/09/05 08:49:04;;;;;;;26.00;15.43;;;14.80;99.90;;;;;;5040264;28;20096;-65
2021/09/05 08:51:31;;;;;;;21.40;14.30;;;14.80;99.90;;;;;;5032296;28;20485;-65
2021/09/05 08:53:58;;;;;;;26.13;16.27;;;14.60;99.90;;;;;;5037964;28;20053;-66
2021/09/05 08:56:23;;;;;;;21.92;15.73;;;14.50;99.90;;;;;;5031792;28;20140;-66
2021/09/05 08:58:49;;;;;;;24.10;15.98;;;14.70;99.90;;;;;;5037778;28;20188;-66
2021/09/05 09:01:16;;;;;;;21.90;17.30;;;14.90;99.90;;;;;;5031222;28;20077;-66
2021/09/05 09:03:42;;;;;;;26.13;17.27;;;15.10;99.90;;;;;;5037991;28;20068;-66
2021/09/05 09:06:07;;;;;;;22.42;16.42;;;15.40;99.90;;;;;;5030398;28;20042;-66
2021/09/05 09:08:33;;;;;;;26.65;17.27;;;15.60;99.90;;;;;;5036362;28;20045;-66
2021/09/05 09:11:04;;;;;;;16.20;13.35;;;15.80;99.90;;;;;;5043711;28;20083;-66
2021/09/05 09:13:34;;;;;;;18.45;12.07;;;15.40;99.90;;;;;;5036008;28;20517;-67
2021/09/05 09:16:11;;;;;;;23.42;15.88;;;15.10;99.90;;;;;;5043255;28;20052;-66
2021/09/05 09:18:39;;;;;;;27.10;16.45;;;15.00;99.90;;;;;;5035523;28;20043;-66
2021/09/05 09:21:10;;;;;;;21.92;16.20;;;15.10;99.90;;;;;;5041732;28;20048;-66
2021/09/05 09:23:37;;;;;;;21.35;14.40;;;15.20;99.90;;;;;;5033253;28;20472;-66
2021/09/05 09:26:11;;;;;;;22.90;14.90;;;15.40;99.90;;;;;;5041070;28;20070;-66
2021/09/05 09:28:41;;;;;;;18.77;13.88;;;15.60;99.90;;;;;;5032441;28;20049;-67
2021/09/05 09:31:16;;;;;;;21.50;14.85;;;15.80;99.90;;;;;;5040562;28;20037;-66
2021/09/05 09:33:43;;;;;;;17.63;13.60;;;15.80;99.90;;;;;;5032992;28;20052;-66
2021/09/05 09:36:12;;;;;;;;;;;16.00;99.90;;;;;;5039501;28;20054;-67
2021/09/05 09:38:40;;;;;;;;;;;16.10;99.90;;;;;;5032782;28;19925;-66
2021/09/05 09:41:11;;;;;;;23.27;14.90;;;16.10;99.90;;;;;;5038926;28;19921;-68
2021/09/05 09:43:59;;;;;;;20.77;14.57;;;16.30;99.90;;;;;;5040659;28;20052;-67
2021/09/05 09:46:29;;;;;;;21.55;15.52;;;16.00;99.90;;;;;;5034694;28;20049;-67
2021/09/05 09:48:58;;;;;;;19.73;15.02;;;15.70;99.90;;;;;;5040971;28;20162;-67
2021/09/05 09:51:24;;;;;;;21.42;15.75;;;15.80;99.90;;;;;;5032682;28;20103;-66
2021/09/05 09:53:50;;;;;;;22.70;16.27;;;15.70;99.90;;;;;;5037840;28;20042;-66
2021/09/05 09:56:17;;;;;;;22.00;15.38;;;15.70;99.90;;;;;;5031160;28;20077;-67
2021/09/05 09:58:50;;;;;;;20.37;12.50;;;15.80;99.90;;;;;;5042939;28;20060;-67
2021/09/05 10:01:18;;;;;;;19.27;12.55;;;15.70;99.90;;;;;;5035980;28;20053;-67
2021/09/05 10:03:46;;;;;;;21.52;15.07;;;15.90;99.90;;;;;;5040997;28;20104;-67
2021/09/05 10:06:13;;;;;;;23.30;15.30;;;16.10;99.90;;;;;;5034099;28;20049;-67
2021/09/05 10:08:43;;;;;;;22.15;15.23;;;16.20;99.90;;;;;;5042024;28;20040;-67
2021/09/05 10:11:11;;;;;;;19.40;13.73;;;16.40;99.90;;;;;;5035589;28;20524;-69
2021/09/05 10:13:39;;;;;;;19.38;13.85;;;16.30;99.90;;;;;;5038773;28;20097;-68
2021/09/05 10:16:05;;;;;;;23.17;14.43;;;16.30;99.90;;;;;;5036211;28;20049;-67
2021/09/05 10:18:34;;;;;;;21.05;14.90;;;16.50;99.90;;;;;;5037664;28;20042;-67
2021/09/05 10:21:00;;;;;;;19.35;14.15;;;16.80;99.90;;;;;;5045959;28;20115;-67
2021/09/05 10:23:35;;;;;;;21.00;14.32;;;17.00;99.90;;;;;;5036166;28;20045;-67
2021/09/05 10:26:05;;;;;;;22.13;15.00;;;17.20;99.90;;;;;;5044683;28;20037;-68
2021/09/05 10:28:33;;;;;;;18.92;13.85;;;16.90;99.90;;;;;;5038708;28;20043;-68
2021/09/05 10:30:59;;;;;;;;;;;17.20;99.90;;;;;;5044421;28;20750;-68
2021/09/05 10:33:37;;;;;;;24.10;14.63;;;17.30;99.90;;;;;;5037390;28;20016;-68
2021/09/05 10:36:18;;;;;;;17.58;13.85;;;17.50;99.90;;;;;;5043724;28;20069;-67
2021/09/05 10:38:45;;;;;;;20.20;14.07;;;17.50;99.90;;;;;;5036893;28;20050;-68
2021/09/05 10:41:24;;;;;;;22.85;13.90;;;17.20;99.90;;;;;;5043042;28;20080;-68
2021/09/05 10:43:59;;;;;;;21.27;13.80;;;17.20;99.90;;;;;;5046013;28;20057;-68
2021/09/05 10:46:31;;;;;;;20.35;16.15;;;16.90;99.90;;;;;;5038674;28;20113;-68
2021/09/05 10:49:01;;;;;;;21.42;14.85;;;17.00;99.90;;;;;;5045553;28;20120;-68
2021/09/05 10:51:39;;;;;;;24.20;15.75;;;16.90;99.90;;;;;;5037651;28;20546;-68
2021/09/05 10:54:09;;;;;;;21.55;15.88;;;16.60;99.90;;;;;;5041293;28;20099;-67
2021/09/05 10:56:41;;;;;;;18.60;14.55;;;17.00;99.90;;;;;;5036904;28;20033;-68
2021/09/05 10:59:11;;;;;;;22.02;16.17;;;16.60;99.90;;;;;;5043999;28;20103;-68
2021/09/05 11:01:39;;;;;;;20.42;15.70;;;16.90;99.90;;;;;;5036567;28;20057;-68
2021/09/05 11:04:14;;;;;;;21.17;12.73;;;16.80;99.90;;;;;;5042358;28;20052;-68
2021/09/05 11:06:52;;;;;;;24.65;16.42;;;16.70;99.90;;;;;;5035440;28;20045;-68
2021/09/05 11:09:17;;;;;;;19.52;15.02;;;16.80;99.90;;;;;;5042498;28;20105;-68
2021/09/05 11:12:18;;;;;;;23.15;14.02;;;16.80;99.90;;;;;;5034753;28;20054;-68
2021/09/05 11:14:47;;;;;;;23.52;16.23;;;17.00;99.90;;;;;;5041365;28;20182;-68
2021/09/05 11:17:16;;;;;;;19.88;15.27;;;17.00;99.90;;;;;;5034621;28;20508;-68
2021/09/05 11:19:54;;;;;;;24.42;14.60;;;17.40;99.90;;;;;;5041324;28;20044;-68
2021/09/05 11:22:35;;;;;;;22.48;15.90;;;17.50;99.90;;;;;;5030121;28;20069;-68
2021/09/05 11:25:11;;;;;;;23.98;15.52;;;17.60;99.90;;;;;;5040800;28;20045;-68
2021/09/05 11:27:50;;;;;;;18.85;14.85;;;17.70;99.90;;;;;;5033283;28;20056;-69
2021/09/05 11:30:17;;;;;;;18.90;14.20;;;18.10;99.90;;;;;;5041880;28;20072;-68
2021/09/05 11:32:43;;;;;;;20.30;13.13;;;18.60;99.90;;;;;;5044299;28;20080;-68
2021/09/05 11:35:11;;;;;;;20.35;13.15;;;18.10;99.90;;;;;;5038133;28;20276;-68
2021/09/05 11:37:40;;;;;;;16.75;13.20;;;18.20;99.90;;;;;;5044718;28;20054;-68
2021/09/05 11:40:17;;;;;;;18.45;12.95;;;18.40;99.90;;;;;;5038356;28;20049;-68
2021/09/05 11:42:46;;;;;;;16.17;11.40;;;18.60;99.90;;;;;;5041089;28;20146;-68
2021/09/05 11:45:12;;;;;;;16.95;11.90;;;19.20;99.90;;;;;;5033157;28;20041;-68
2021/09/05 11:47:39;;;;;;;15.67;11.67;;;19.50;99.90;;;;;;5038816;28;20045;-68
2021/09/05 11:50:05;;;;;;;16.77;12.70;;;20.00;99.90;;;;;;5033131;28;20298;-68
2021/09/05 11:52:33;;;;;;;15.77;11.30;;;20.50;99.90;;;;;;5033691;28;20041;-69
2021/09/05 11:55:09;;;;;;;15.65;11.88;;;19.90;99.90;;;;;;5045304;28;20037;-69
2021/09/05 11:57:50;;;;;;;12.73;10.52;;;20.30;99.90;;;;;;5038327;28;20104;-69
2021/09/05 12:00:24;;;;;;;15.40;10.52;;;20.70;99.90;;;;;;5030048;28;20049;-69
2021/09/05 12:02:51;;;;;;;13.88;10.35;;;20.70;99.90;;;;;;5037160;28;20053;-69
2021/09/05 12:05:18;;;;;;;14.55;10.80;;;21.30;99.90;;;;;;5043230;28;20061;-69
2021/09/05 12:07:44;;;;;;;11.15;9.60;;;20.90;99.90;;;;;;5036648;28;20045;-70
2021/09/05 12:10:11;;;;;;;15.38;10.50;;;20.80;99.90;;;;;;5042096;28;20042;-69
2021/09/05 12:12:39;;;;;;;13.23;10.15;;;20.70;99.90;;;;;;5035831;28;20100;-69
2021/09/05 12:15:12;;;;;;;11.73;9.02;;;20.80;99.90;;;;;;5044605;28;20199;-70
2021/09/05 12:17:42;;;;;;;14.23;10.07;;;21.70;99.90;;;;;;5066645;28;20059;-69
2021/09/05 12:20:09;;;;;;;14.27;9.45;;;21.20;99.90;;;;;;5040852;28;20053;-69
2021/09/05 12:22:55;;;;;;;12.80;8.10;;;21.70;99.90;;;;;;5039051;28;20052;-69